createdAt,value
2023-05-14T00:02:21.378Z,101499.66
2023-05-14T00:04:49.705Z,101500.31
2023-05-14T00:07:19.164Z,101499.22
2023-05-14T00:09:47.363Z,101493.78
2023-05-14T00:12:15.595Z,101498.63
2023-05-14T00:14:43.822Z,101501.31
2023-05-14T00:17:11.969Z,101493.09
2023-05-14T00:19:41.883Z,101495.13
2023-05-14T00:22:10.103Z,101482.47
2023-05-14T00:24:39.651Z,101489.66
2023-05-14T00:27:07.969Z,101497.19
2023-05-14T00:29:36.117Z,101490.00
2023-05-14T00:32:04.704Z,101493.81
2023-05-14T00:34:33.182Z,101490.31
2023-05-14T00:37:01.489Z,101485.00
2023-05-14T00:39:29.639Z,101488.91
2023-05-14T00:41:59.222Z,101492.97
2023-05-14T00:44:27.520Z,101488.44
2023-05-14T00:46:55.973Z,101493.22
2023-05-14T00:49:24.528Z,101487.50
2023-05-14T00:51:53.298Z,101483.47
2023-05-14T00:54:22.236Z,101492.66
2023-05-14T00:56:50.444Z,101490.47
2023-05-14T00:59:19.936Z,101487.66
2023-05-14T01:01:48.250Z,101494.69
2023-05-14T01:04:16.852Z,101485.47
2023-05-14T01:06:55.713Z,101484.06
2023-05-14T01:09:27.953Z,101483.13
2023-05-14T01:12:01.792Z,101483.44
2023-05-14T01:14:37.530Z,101485.09
2023-05-14T01:17:06.235Z,101483.56
2023-05-14T01:19:40.643Z,101480.06
2023-05-14T01:22:10.616Z,101484.88
2023-05-14T01:24:38.922Z,101478.53
2023-05-14T01:27:11.523Z,101481.00
2023-05-14T01:29:44.333Z,101476.59
2023-05-14T01:32:14.412Z,101481.31
2023-05-14T01:34:44.075Z,101476.88
2023-05-14T01:37:14.706Z,101483.97
2023-05-14T01:39:43.661Z,101474.69
2023-05-14T01:42:12.033Z,101472.69
2023-05-14T01:44:40.656Z,101471.25
2023-05-14T01:47:08.803Z,101468.50
2023-05-14T01:49:37.617Z,101470.69
2023-05-14T01:52:06.432Z,101471.88
2023-05-14T01:54:35.960Z,101472.81
2023-05-14T01:57:04.647Z,101466.00
2023-05-14T01:59:32.880Z,101457.81
2023-05-14T02:02:01.105Z,101464.38
2023-05-14T02:04:29.699Z,101469.31
2023-05-14T02:06:58.111Z,101465.00
2023-05-14T02:09:26.358Z,101463.63
2023-05-14T02:11:56.175Z,101461.41
2023-05-14T02:14:24.370Z,101456.44
2023-05-14T02:16:52.527Z,101464.56
2023-05-14T02:19:20.715Z,101453.53
2023-05-14T02:21:50.279Z,101452.34
2023-05-14T02:24:18.485Z,101451.88
2023-05-14T02:26:46.640Z,101449.69
2023-05-14T02:29:16.159Z,101452.81
2023-05-14T02:31:44.487Z,101452.81
2023-05-14T02:34:12.732Z,101453.13
2023-05-14T02:36:41.096Z,101459.63
2023-05-14T02:39:09.256Z,101448.38
2023-05-14T02:41:37.459Z,101448.47
2023-05-14T02:44:06.108Z,101450.34
2023-05-14T02:46:36.325Z,101445.25
2023-05-14T02:49:04.507Z,101447.53
2023-05-14T02:51:32.775Z,101450.94
2023-05-14T02:54:01.016Z,101453.28
2023-05-14T02:56:29.157Z,101451.19
2023-05-14T02:58:57.298Z,101447.84
2023-05-14T03:01:25.880Z,101451.50
2023-05-14T03:03:55.967Z,101457.81
2023-05-14T03:06:24.129Z,101454.38
2023-05-14T03:08:52.280Z,101451.88
2023-05-14T03:11:20.681Z,101457.47
2023-05-14T03:13:48.850Z,101460.44
2023-05-14T03:16:17.076Z,101457.00
2023-05-14T03:18:45.582Z,101461.19
2023-05-14T03:21:15.563Z,101458.22
2023-05-14T03:23:44.772Z,101458.66
2023-05-14T03:26:12.892Z,101456.22
2023-05-14T03:28:41.194Z,101455.34
2023-05-14T03:31:09.456Z,101457.81
2023-05-14T03:33:38.582Z,101454.59
2023-05-14T03:36:07.260Z,101457.59
2023-05-14T03:38:36.857Z,101456.91
2023-05-14T03:41:05.151Z,101455.22
2023-05-14T03:43:33.314Z,101454.03
2023-05-14T03:46:01.461Z,101448.38
2023-05-14T03:48:29.919Z,101448.84
2023-05-14T03:50:58.171Z,101452.00
2023-05-14T03:53:26.339Z,101441.59
2023-05-14T03:55:55.913Z,101447.34
2023-05-14T03:58:24.175Z,101450.63
2023-05-14T04:00:52.918Z,101444.25
2023-05-14T04:03:21.209Z,101439.69
2023-05-14T04:05:49.526Z,101434.78
2023-05-14T04:08:17.687Z,101436.75
2023-05-14T04:10:46.276Z,101437.44
2023-05-14T04:13:15.798Z,101441.44
2023-05-14T04:15:44.851Z,101429.72
2023-05-14T04:18:13.053Z,101434.75
2023-05-14T04:20:41.513Z,101429.72
2023-05-14T04:23:10.142Z,101430.31
2023-05-14T04:25:38.328Z,101428.19
2023-05-14T04:28:06.781Z,101430.91
2023-05-14T04:30:36.294Z,101423.69
2023-05-14T04:33:04.933Z,101430.22
2023-05-14T04:35:33.084Z,101437.00
2023-05-14T04:38:01.314Z,101430.56
2023-05-14T04:40:31.097Z,101425.50
2023-05-14T04:42:59.443Z,101424.91
2023-05-14T04:45:27.619Z,101430.91
2023-05-14T04:47:57.129Z,101425.00
2023-05-14T04:50:25.824Z,101425.00
2023-05-14T04:52:55.785Z,101426.03
2023-05-14T04:55:24.207Z,101428.81
2023-05-14T04:57:52.430Z,101432.22
2023-05-14T05:00:22.026Z,101426.81
2023-05-14T05:02:50.709Z,101432.78
2023-05-14T05:05:20.689Z,101428.44
2023-05-14T05:07:48.995Z,101432.63
2023-05-14T05:10:17.165Z,101422.84
2023-05-14T05:12:45.346Z,101430.91
2023-05-14T05:15:13.571Z,101439.16
2023-05-14T05:17:41.945Z,101429.69
2023-05-14T05:20:10.904Z,101427.63
2023-05-14T05:22:40.636Z,101432.34
2023-05-14T05:25:09.403Z,101437.22
2023-05-14T05:27:37.537Z,101435.84
2023-05-14T05:30:07.332Z,101435.16
2023-05-14T05:32:36.142Z,101435.09
2023-05-14T05:35:04.964Z,101429.28
2023-05-14T05:37:33.127Z,101428.53
2023-05-14T05:40:02.715Z,101435.34
2023-05-14T05:42:30.946Z,101431.63
2023-05-14T05:44:59.130Z,101424.00
2023-05-14T05:47:27.326Z,101414.31
2023-05-14T05:49:55.506Z,101428.84
2023-05-14T05:52:24.182Z,101428.41
2023-05-14T05:54:52.481Z,101422.91
2023-05-14T05:57:25.663Z,101420.03
2023-05-14T05:59:54.541Z,101428.97
2023-05-14T06:02:22.923Z,101424.41
2023-05-14T06:04:51.209Z,101431.09
2023-05-14T06:07:19.407Z,101428.81
2023-05-14T06:09:47.869Z,101417.56
2023-05-14T06:12:16.143Z,101423.09
2023-05-14T06:14:45.674Z,101422.34
2023-05-14T06:17:13.847Z,101429.19
2023-05-14T06:19:42.043Z,101426.38
2023-05-14T06:22:10.318Z,101433.56
2023-05-14T06:24:38.500Z,101440.69
2023-05-14T06:27:07.087Z,101444.16
2023-05-14T06:29:35.239Z,101444.28
2023-05-14T06:32:05.652Z,101433.06
2023-05-14T06:34:34.216Z,101441.78
2023-05-14T06:37:04.142Z,101445.97
2023-05-14T06:39:32.398Z,101443.75
2023-05-14T06:42:00.659Z,101447.41
2023-05-14T06:44:28.873Z,101444.75
2023-05-14T06:46:57.151Z,101442.03
2023-05-14T06:49:26.625Z,101439.34
2023-05-14T06:51:54.794Z,101440.38
2023-05-14T06:54:23.163Z,101440.88
2023-05-14T06:56:51.282Z,101440.47
2023-05-14T06:59:19.499Z,101437.50
2023-05-14T07:01:47.761Z,101430.53
2023-05-14T07:04:16.001Z,101434.75
2023-05-14T07:06:46.029Z,101422.56
2023-05-14T07:09:14.399Z,101418.97
2023-05-14T07:11:42.528Z,101418.59
2023-05-14T07:14:10.699Z,101411.13
2023-05-14T07:16:38.899Z,101423.63
2023-05-14T07:19:07.216Z,101422.88
2023-05-14T07:21:36.136Z,101430.28
2023-05-14T07:24:06.782Z,101423.31
2023-05-14T07:26:35.215Z,101412.44
2023-05-14T07:29:03.444Z,101421.84
2023-05-14T07:31:31.655Z,101418.59
2023-05-14T07:34:00.005Z,101419.72
2023-05-14T07:36:28.375Z,101410.63
2023-05-14T07:38:56.601Z,101402.94
2023-05-14T07:41:26.104Z,101424.53
2023-05-14T07:43:54.298Z,101416.72
2023-05-14T07:46:23.856Z,101407.72
2023-05-14T07:48:52.000Z,101407.41
2023-05-14T07:51:20.168Z,101401.72
2023-05-14T07:53:48.358Z,101398.47
2023-05-14T07:56:16.865Z,101398.81
2023-05-14T07:58:46.368Z,101398.69
2023-05-14T08:01:14.640Z,101386.22
2023-05-14T08:03:42.900Z,101385.84
2023-05-14T08:06:11.210Z,101389.41
2023-05-14T08:08:39.402Z,101383.19
2023-05-14T08:11:07.665Z,101370.22
2023-05-14T08:13:36.160Z,101376.25
2023-05-14T08:16:06.304Z,101376.25
2023-05-14T08:18:34.596Z,101361.38
2023-05-14T08:21:03.796Z,101358.56
2023-05-14T08:23:32.167Z,101361.13
2023-05-14T08:26:00.414Z,101352.69
2023-05-14T08:28:28.694Z,101349.47
2023-05-14T08:30:57.025Z,101346.94
2023-05-14T08:33:26.670Z,101353.19
2023-05-14T08:35:54.989Z,101356.53
2023-05-14T08:38:23.169Z,101348.22
2023-05-14T08:40:57.286Z,101339.06
2023-05-14T08:43:28.199Z,101323.50
2023-05-14T08:46:02.217Z,101314.94
2023-05-14T08:48:34.470Z,101313.13
2023-05-14T08:51:03.277Z,101304.66
2023-05-14T08:53:32.108Z,101307.03
2023-05-14T08:56:02.680Z,101308.50
2023-05-14T08:58:31.106Z,101293.38
2023-05-14T09:00:59.517Z,101296.94
2023-05-14T09:03:27.999Z,101296.09
2023-05-14T09:06:00.093Z,101296.50
2023-05-14T09:08:28.599Z,101290.56
2023-05-14T09:10:56.784Z,101289.38
2023-05-14T09:13:26.915Z,101293.28
2023-05-14T09:15:57.019Z,101288.47
2023-05-14T09:18:26.196Z,101292.69
2023-05-14T09:20:54.538Z,101288.84
2023-05-14T09:23:26.706Z,101285.09
2023-05-14T09:25:54.951Z,101279.66
2023-05-14T09:28:24.404Z,101279.66
2023-05-14T09:30:52.753Z,101275.09
2023-05-14T09:33:28.172Z,101266.03
2023-05-14T09:35:59.535Z,101264.28
2023-05-14T09:38:33.135Z,101257.25
2023-05-14T09:41:01.779Z,101250.56
2023-05-14T09:43:29.993Z,101246.03
2023-05-14T09:45:58.187Z,101246.03
2023-05-14T09:48:26.519Z,101236.78
2023-05-14T09:50:54.703Z,101228.75
2023-05-14T09:53:22.874Z,101236.22
2023-05-14T09:55:52.612Z,101226.94
2023-05-14T09:58:20.941Z,101230.28
2023-05-14T10:00:49.939Z,101220.09
2023-05-14T10:03:21.171Z,101215.06
2023-05-14T10:05:51.048Z,101215.66
2023-05-14T10:08:25.426Z,101209.22
2023-05-14T10:10:56.246Z,101207.09
2023-05-14T10:13:31.335Z,101216.16
2023-05-14T10:16:09.467Z,101205.13
2023-05-14T10:18:48.561Z,101203.72
2023-05-14T10:21:21.058Z,101195.06
2023-05-14T10:23:50.357Z,101184.94
2023-05-14T10:26:21.240Z,101192.09
2023-05-14T10:28:51.405Z,101174.84
2023-05-14T10:31:19.608Z,101171.44
2023-05-14T10:33:50.166Z,101174.56
2023-05-14T10:36:19.413Z,101173.72
2023-05-14T10:38:47.979Z,101173.75
2023-05-14T10:41:17.962Z,101170.13
2023-05-14T10:43:48.405Z,101167.88
2023-05-14T10:46:16.761Z,101167.94
2023-05-14T10:48:45.318Z,101147.97
2023-05-14T10:51:13.973Z,101128.78
2023-05-14T10:53:43.714Z,101135.59
2023-05-14T10:56:13.570Z,101128.78
2023-05-14T10:58:44.108Z,101117.56
2023-05-14T11:01:14.944Z,101107.78
2023-05-14T11:03:45.902Z,101110.47
2023-05-14T11:06:16.654Z,101119.25
2023-05-14T11:08:46.454Z,101122.66
2023-05-14T11:11:15.195Z,101111.72
2023-05-14T11:13:43.883Z,101108.06
2023-05-14T11:18:54.704Z,101093.59
2023-05-14T11:21:23.005Z,101093.88
2023-05-14T11:23:51.246Z,101091.91
2023-05-14T11:26:21.488Z,101086.47
2023-05-14T11:28:50.505Z,101085.75
2023-05-14T11:31:20.198Z,101092.66
2023-05-14T11:33:48.574Z,101095.44
2023-05-14T11:36:16.790Z,101101.91
2023-05-14T11:38:50.544Z,101093.00
2023-05-14T11:41:20.978Z,101065.03
2023-05-14T11:43:49.452Z,101065.44
2023-05-14T11:46:19.049Z,101055.38
2023-05-14T11:48:49.084Z,101047.44
2023-05-14T11:51:17.308Z,101041.16
2023-05-14T11:53:46.422Z,101026.63
2023-05-14T11:56:14.657Z,101043.66
2023-05-14T11:58:49.067Z,101052.97
2023-05-14T12:01:17.543Z,101051.88
2023-05-14T12:03:45.897Z,101048.66
2023-05-14T12:06:15.553Z,101048.50
2023-05-14T12:08:43.815Z,101050.31
2023-05-14T12:11:11.938Z,101049.56
2023-05-14T12:13:40.771Z,101051.94
2023-05-14T12:16:09.021Z,101041.88
2023-05-14T12:18:37.976Z,101040.78
2023-05-14T12:21:08.362Z,101043.59
2023-05-14T12:23:39.812Z,101047.59
2023-05-14T12:26:09.152Z,101027.22
2023-05-14T12:28:43.099Z,101019.41
2023-05-14T12:31:11.505Z,101033.66
2023-05-14T12:33:39.993Z,101032.78
2023-05-14T12:38:41.618Z,101015.75
2023-05-14T12:41:09.778Z,101012.06
2023-05-14T12:43:37.924Z,101015.53
2023-05-14T12:46:06.306Z,101020.31
2023-05-14T12:48:34.489Z,101011.00
2023-05-14T12:51:02.843Z,101009.75
2023-05-14T12:53:31.052Z,101013.19
2023-05-14T12:56:00.620Z,100999.69
2023-05-14T12:58:28.860Z,100999.84
2023-05-14T13:00:57.068Z,101006.03
2023-05-14T13:03:26.354Z,100996.72
2023-05-14T13:05:55.758Z,100985.31
2023-05-14T13:08:25.150Z,100991.00
2023-05-14T13:10:54.064Z,100984.75
2023-05-14T13:13:23.817Z,100965.50
2023-05-14T13:15:52.042Z,100978.03
2023-05-14T13:18:20.338Z,100974.88
2023-05-14T13:20:48.609Z,100968.03
2023-05-14T13:23:16.782Z,100966.66
2023-05-14T13:25:45.056Z,100967.28
2023-05-14T13:28:15.024Z,100970.19
2023-05-14T13:31:05.348Z,100969.78
2023-05-14T13:33:34.332Z,100972.81
2023-05-14T13:36:02.597Z,100972.91
2023-05-14T13:38:30.876Z,100962.69
2023-05-14T13:41:02.429Z,100965.75
2023-05-14T13:43:31.408Z,100960.88
2023-05-14T13:46:01.610Z,100950.63
2023-05-14T13:48:30.958Z,100962.88
2023-05-14T13:50:59.465Z,100964.66
2023-05-14T13:53:27.888Z,100973.16
2023-05-14T13:55:58.333Z,100980.19
2023-05-14T13:58:26.969Z,100976.94
2023-05-14T14:00:56.051Z,100979.72
2023-05-14T14:03:25.546Z,100977.72
2023-05-14T14:05:54.173Z,100976.34
2023-05-14T14:08:24.369Z,100979.13
2023-05-14T14:10:55.138Z,100976.03
2023-05-14T14:13:24.465Z,100975.91
2023-05-14T14:15:52.942Z,100962.59
2023-05-14T14:18:21.202Z,100966.69
2023-05-14T14:20:50.795Z,100957.94
2023-05-14T14:23:19.549Z,100946.22
2023-05-14T14:25:47.909Z,100946.91
2023-05-14T14:28:16.089Z,100941.63
2023-05-14T14:30:44.713Z,100944.25
2023-05-14T14:33:12.946Z,100947.31
2023-05-14T14:35:41.168Z,100942.91
2023-05-14T14:38:10.667Z,100946.66
2023-05-14T14:40:38.889Z,100938.44
2023-05-14T14:43:07.182Z,100933.19
2023-05-14T14:45:35.418Z,100940.78
2023-05-14T14:48:27.149Z,100938.59
2023-05-14T14:50:56.359Z,100940.91
2023-05-14T14:53:25.916Z,100939.50
2023-05-14T14:55:54.365Z,100946.63
2023-05-14T14:58:22.972Z,100938.13
2023-05-14T15:00:53.455Z,100946.66
2023-05-14T15:03:22.299Z,100947.56
2023-05-14T15:05:51.180Z,100938.03
2023-05-14T15:08:19.472Z,100940.13
2023-05-14T15:10:48.978Z,100934.31
2023-05-14T15:13:17.561Z,100919.22
2023-05-14T15:15:45.884Z,100926.56
2023-05-14T15:18:14.111Z,100922.75
2023-05-14T15:20:42.356Z,100918.19
2023-05-14T15:23:11.532Z,100927.75
2023-05-14T15:25:39.810Z,100920.03
2023-05-14T15:28:09.308Z,100912.31
2023-05-14T15:30:37.762Z,100909.25
2023-05-14T15:33:08.692Z,100904.78
2023-05-14T15:35:37.451Z,100904.47
2023-05-14T15:38:05.608Z,100894.34
2023-05-14T15:40:35.020Z,100884.94
2023-05-14T15:43:03.299Z,100879.00
2023-05-14T15:45:32.940Z,100864.25
2023-05-14T15:48:01.217Z,100836.41
2023-05-14T15:50:29.505Z,100836.72
2023-05-14T15:52:57.766Z,100836.81
2023-05-14T15:55:25.970Z,100841.06
2023-05-14T15:57:54.140Z,100848.91
2023-05-14T16:00:22.828Z,100850.44
2023-05-14T16:02:52.984Z,100844.53
2023-05-14T16:05:21.195Z,100844.63
2023-05-14T16:07:49.410Z,100824.09
2023-05-14T16:10:17.946Z,100830.63
2023-05-14T16:12:46.582Z,100835.25
2023-05-14T16:15:14.759Z,100813.88
2023-05-14T16:17:43.200Z,100793.78
2023-05-14T16:20:13.660Z,100800.53
2023-05-14T16:22:42.571Z,100822.41
2023-05-14T16:25:10.772Z,100821.44
2023-05-14T16:27:39.043Z,100794.78
2023-05-14T16:30:08.644Z,100800.59
2023-05-14T16:32:36.880Z,100803.78
2023-05-14T16:35:05.530Z,100809.03
2023-05-14T16:37:35.443Z,100815.81
2023-05-14T16:40:03.788Z,100815.16
2023-05-14T16:42:31.949Z,100826.56
2023-05-14T16:45:00.401Z,100823.69
2023-05-14T16:47:28.585Z,100826.88
2023-05-14T16:49:56.737Z,100834.16
2023-05-14T16:52:24.953Z,100840.03
2023-05-14T16:54:54.509Z,100843.16
2023-05-14T16:57:22.671Z,100849.66
2023-05-14T16:59:50.996Z,100837.41
2023-05-14T17:02:19.294Z,100856.16
2023-05-14T17:04:47.544Z,100858.88
2023-05-14T17:07:15.722Z,100849.28
2023-05-14T17:09:43.862Z,100850.66
2023-05-14T17:12:14.038Z,100856.16
2023-05-14T17:14:42.218Z,100846.16
2023-05-14T17:17:10.379Z,100845.97
2023-05-14T17:19:38.506Z,100850.00
2023-05-14T17:22:07.275Z,100854.94
2023-05-14T17:24:36.467Z,100856.13
2023-05-14T17:27:05.166Z,100854.06
2023-05-14T17:29:34.638Z,100845.66
2023-05-14T17:32:03.595Z,100843.06
2023-05-14T17:34:31.866Z,100846.75
2023-05-14T17:37:00.827Z,100846.31
2023-05-14T17:39:29.090Z,100853.47
2023-05-14T17:41:57.267Z,100853.41
2023-05-14T17:44:25.464Z,100855.88
2023-05-14T17:46:55.111Z,100863.63
2023-05-14T17:49:23.268Z,100854.75
2023-05-14T17:51:51.455Z,100856.34
2023-05-14T17:54:19.654Z,100866.22
2023-05-14T17:56:50.808Z,100865.81
2023-05-14T17:59:19.141Z,100857.44
2023-05-14T18:01:47.357Z,100860.72
2023-05-14T18:04:16.943Z,100863.66
2023-05-14T18:06:45.671Z,100855.47
2023-05-14T18:09:13.831Z,100855.59
2023-05-14T18:11:42.403Z,100855.31
2023-05-14T18:14:10.927Z,100859.84
2023-05-14T18:16:39.114Z,100866.81
2023-05-14T18:19:07.383Z,100872.41
2023-05-14T18:21:36.932Z,100870.56
2023-05-14T18:24:05.698Z,100871.53
2023-05-14T18:26:34.987Z,100874.06
2023-05-14T18:29:03.175Z,100876.59
2023-05-14T18:31:31.419Z,100880.84
2023-05-14T18:33:59.618Z,100879.78
2023-05-14T18:36:28.198Z,100879.22
2023-05-14T18:38:57.815Z,100877.88
2023-05-14T18:41:26.092Z,100871.25
2023-05-14T18:43:54.322Z,100877.44
2023-05-14T18:46:22.593Z,100880.66
2023-05-14T18:48:51.264Z,100878.66
2023-05-14T18:51:19.470Z,100878.28
2023-05-14T18:53:47.740Z,100888.00
2023-05-14T18:56:17.210Z,100881.47
2023-05-14T18:58:45.394Z,100892.13
2023-05-14T19:01:13.683Z,100885.63
2023-05-14T19:03:42.294Z,100893.22
2023-05-14T19:06:10.682Z,100892.28
2023-05-14T19:08:38.859Z,100884.66
2023-05-14T19:11:07.052Z,100894.56
2023-05-14T19:13:36.648Z,100888.81
2023-05-14T19:16:05.273Z,100890.97
2023-05-14T19:18:33.726Z,100897.06
2023-05-14T19:21:01.913Z,100885.38
2023-05-14T19:23:31.063Z,100894.97
2023-05-14T19:25:59.337Z,100892.63
2023-05-14T19:28:27.645Z,100889.13
2023-05-14T19:30:57.341Z,100896.91
2023-05-14T19:33:26.221Z,100897.66
2023-05-14T19:35:54.396Z,100889.59
2023-05-14T19:38:22.585Z,100891.56
2023-05-14T19:40:53.291Z,100879.16
2023-05-14T19:43:21.521Z,100878.69
2023-05-14T19:45:50.589Z,100874.44
2023-05-14T19:48:20.241Z,100871.13
2023-05-14T19:50:48.504Z,100875.53
2023-05-14T19:53:16.674Z,100867.88
2023-05-14T19:55:44.903Z,100865.19
2023-05-14T19:58:13.082Z,100875.03
2023-05-14T20:00:42.041Z,100870.91
2023-05-14T20:03:10.774Z,100871.03
2023-05-14T20:05:40.853Z,100869.09
2023-05-14T20:08:09.254Z,100863.72
2023-05-14T20:10:37.438Z,100872.91
2023-05-14T20:13:06.281Z,100872.47
2023-05-14T20:15:34.789Z,100865.34
2023-05-14T20:18:06.151Z,100869.34
2023-05-14T20:20:34.438Z,100859.47
2023-05-14T20:23:03.965Z,100864.16
2023-05-14T20:25:33.504Z,100859.50
2023-05-14T20:28:01.906Z,100857.50
2023-05-14T20:30:30.168Z,100856.59
2023-05-14T20:32:58.663Z,100854.75
2023-05-14T20:35:27.385Z,100853.47
2023-05-14T20:37:56.269Z,100847.81
2023-05-14T20:40:25.917Z,100840.63
2023-05-14T20:42:54.080Z,100840.75
2023-05-14T20:45:22.291Z,100837.56
2023-05-14T20:47:50.528Z,100848.22
2023-05-14T20:50:18.806Z,100835.22
2023-05-14T20:52:47.077Z,100834.69
2023-05-14T20:55:15.450Z,100829.25
2023-05-14T20:57:44.978Z,100820.28
2023-05-14T21:00:14.120Z,100811.13
2023-05-14T21:02:42.575Z,100813.03
2023-05-14T21:05:10.820Z,100804.34
2023-05-14T21:07:39.368Z,100807.31
2023-05-14T21:10:09.209Z,100802.16
2023-05-14T21:12:37.482Z,100799.50
2023-05-14T21:15:08.223Z,100793.88
2023-05-14T21:17:36.414Z,100795.03
2023-05-14T21:20:05.287Z,100789.72
2023-05-14T21:22:33.492Z,100794.91
2023-05-14T21:25:01.658Z,100785.41
2023-05-14T21:27:29.902Z,100794.47
2023-05-14T21:29:58.122Z,100796.56
2023-05-14T21:32:27.695Z,100797.78
2023-05-14T21:34:56.168Z,100791.16
2023-05-14T21:37:24.482Z,100786.25
2023-05-14T21:39:52.756Z,100792.34
2023-05-14T21:42:21.372Z,100782.25
2023-05-14T21:44:49.531Z,100779.81
2023-05-14T21:47:17.848Z,100786.34
2023-05-14T21:49:47.402Z,100784.97
2023-05-14T21:52:15.644Z,100778.59
2023-05-14T21:54:43.870Z,100775.72
2023-05-14T21:57:12.040Z,100772.03
2023-05-14T21:59:40.310Z,100774.50
2023-05-14T22:02:08.741Z,100767.31
2023-05-14T22:04:36.965Z,100764.47
2023-05-14T22:07:06.569Z,100766.34
2023-05-14T22:09:34.825Z,100761.03
2023-05-14T22:12:02.992Z,100766.28
2023-05-14T22:14:31.151Z,100765.63
2023-05-14T22:16:59.375Z,100758.59
2023-05-14T22:19:27.889Z,100763.44
2023-05-14T22:21:56.392Z,100767.66
2023-05-14T22:24:26.163Z,100767.38
2023-05-14T22:26:54.664Z,100765.09
2023-05-14T22:29:22.979Z,100761.09
2023-05-14T22:31:51.256Z,100762.72
2023-05-14T22:34:20.159Z,100766.31
2023-05-14T22:36:48.361Z,100757.78
2023-05-14T22:39:16.507Z,100762.06
2023-05-14T22:41:46.101Z,100752.38
2023-05-14T22:44:14.353Z,100745.56
2023-05-14T22:46:42.750Z,100751.03
2023-05-14T22:49:10.928Z,100742.81
2023-05-14T22:51:39.357Z,100742.84
2023-05-14T22:54:07.961Z,100737.34
2023-05-14T22:56:36.645Z,100737.34
2023-05-14T22:59:06.182Z,100736.28
2023-05-14T23:01:34.534Z,100739.63
2023-05-14T23:04:02.782Z,100734.69
2023-05-14T23:06:31.362Z,100723.53
2023-05-14T23:08:59.620Z,100722.41
2023-05-14T23:11:28.126Z,100724.63
2023-05-14T23:13:56.278Z,100720.25
2023-05-14T23:16:25.957Z,100720.09
2023-05-14T23:18:54.496Z,100712.50
2023-05-14T23:21:23.569Z,100710.31
2023-05-14T23:23:52.005Z,100698.69
2023-05-14T23:26:21.477Z,100703.56
2023-05-14T23:28:51.100Z,100699.34
2023-05-14T23:31:19.311Z,100688.72
2023-05-14T23:33:48.835Z,100685.13
2023-05-14T23:36:17.034Z,100686.91
2023-05-14T23:38:45.295Z,100688.22
2023-05-14T23:41:13.471Z,100683.06
2023-05-14T23:43:41.601Z,100675.50
2023-05-14T23:46:10.158Z,100680.13
2023-05-14T23:48:38.458Z,100672.66
2023-05-14T23:51:08.058Z,100671.13
2023-05-14T23:53:36.185Z,100659.38
2023-05-14T23:56:04.465Z,100663.13
2023-05-14T23:58:33.685Z,100657.84
